Time;durP1;ratioP1;P1;durP2;ratioP2;P2;SDS_P1;SDS_P2;PMS_P1;PMS_P2;Temp;Humidity;BMP_temperature;BMP_pressure;BME280_temperature;BME280_humidity;BME280_pressure;Samples;Min_cycle;Max_cycle;Signal;HPM_P1;HPM_P2
2023/01/19 00:01:42;;;;;;;1.92;1.55;;;4.90;99.90;;;;;;5059256;28;20609;-46
2023/01/19 00:04:11;;;;;;;2.30;1.95;;;4.90;99.90;;;;;;5067644;28;20240;-47
2023/01/19 00:06:40;;;;;;;3.70;1.50;;;4.90;99.90;;;;;;5050611;28;20201;-46
2023/01/19 00:09:09;;;;;;;2.67;2.40;;;4.90;99.90;;;;;;5051833;28;20239;-45
2023/01/19 00:11:38;;;;;;;1.83;1.63;;;4.90;99.90;;;;;;5079259;28;20227;-46
2023/01/19 00:14:06;;;;;;;1.88;1.40;;;4.90;99.90;;;;;;5067338;28;20195;-46
2023/01/19 00:16:35;;;;;;;2.45;2.05;;;4.90;99.90;;;;;;5058602;28;20713;-46
2023/01/19 00:19:04;;;;;;;2.05;1.85;;;4.90;99.90;;;;;;5059442;28;20245;-46
2023/01/19 00:21:32;;;;;;;5.35;2.40;;;4.90;99.90;;;;;;5065410;28;20658;-44
2023/01/19 00:24:02;;;;;;;2.65;1.95;;;4.90;99.90;;;;;;5062706;28;20242;-46
2023/01/19 00:26:31;;;;;;;2.28;1.88;;;4.90;99.90;;;;;;5073673;28;20223;-46
2023/01/19 00:28:59;;;;;;;2.22;1.98;;;4.90;99.90;;;;;;5078854;23;20585;-74
2023/01/19 00:31:32;;;;;;;1.80;1.70;;;4.90;99.90;;;;;;5041836;28;20185;-74
2023/01/19 00:34:01;;;;;;;2.70;1.65;;;4.90;99.90;;;;;;5030353;28;20205;-73
2023/01/19 00:36:29;;;;;;;2.17;1.75;;;4.90;99.90;;;;;;5006997;28;20232;-74
2023/01/19 00:38:58;;;;;;;2.65;1.60;;;4.90;99.90;;;;;;5019707;28;20250;-74
2023/01/19 00:44:10;;;;;;;2.58;1.85;;;4.90;99.90;;;;;;5051773;28;20219;-74
2023/01/19 00:46:39;;;;;;;2.95;2.17;;;4.90;99.90;;;;;;5021023;28;20229;-74
2023/01/19 00:49:07;;;;;;;2.13;1.92;;;4.90;99.90;;;;;;5025170;28;20204;-73
2023/01/19 00:51:37;;;;;;;2.35;2.10;;;4.90;99.90;;;;;;5019301;28;20690;-74
2023/01/19 00:54:09;;;;;;;1.52;1.42;;;4.90;99.90;;;;;;5022536;28;20299;-74
2023/01/19 00:56:38;;;;;;;1.77;1.60;;;4.90;99.90;;;;;;5018722;28;20260;-74
2023/01/19 00:59:07;;;;;;;3.80;1.77;;;4.90;99.90;;;;;;5023731;28;20199;-74
2023/01/19 01:01:35;;;;;;;1.60;1.50;;;4.90;99.90;;;;;;5021683;28;20201;-74
2023/01/19 01:04:13;;;;;;;2.70;1.70;;;4.90;99.90;;;;;;5022245;28;20193;-74
2023/01/19 01:06:42;;;;;;;2.50;2.15;;;4.90;99.90;;;;;;5021633;28;20638;-74
2023/01/19 01:09:11;;;;;;;2.40;1.80;;;4.90;99.90;;;;;;5039362;28;20197;-74
2023/01/19 01:11:42;;;;;;;3.25;1.75;;;4.90;99.90;;;;;;5038561;28;20201;-74
2023/01/19 01:14:12;;;;;;;1.60;1.35;;;4.90;99.90;;;;;;5021959;28;20761;-74
2023/01/19 01:16:42;;;;;;;2.55;2.00;;;4.90;99.90;;;;;;5012577;28;20201;-74
2023/01/19 01:19:10;;;;;;;2.03;1.48;;;4.90;99.90;;;;;;5023282;28;20201;-74
2023/01/19 01:21:39;;;;;;;1.60;1.50;;;4.90;99.90;;;;;;5021644;28;20197;-74
2023/01/19 01:24:08;;;;;;;1.65;1.50;;;4.90;99.90;;;;;;5021356;28;20215;-74
2023/01/19 01:26:36;;;;;;;2.45;2.10;;;4.90;99.90;;;;;;5021402;28;20209;-75
2023/01/19 01:29:07;;;;;;;1.40;1.30;;;4.90;99.90;;;;;;5024602;28;20196;-75
2023/01/19 01:31:35;;;;;;;3.25;1.70;;;4.90;99.90;;;;;;5019169;28;20206;-74
2023/01/19 01:34:04;;;;;;;1.92;1.50;;;4.90;99.90;;;;;;5031115;28;20717;-75
2023/01/19 01:36:32;;;;;;;2.95;2.45;;;4.90;99.90;;;;;;5030917;28;20732;-74
2023/01/19 01:39:01;;;;;;;2.00;1.65;;;4.90;99.90;;;;;;5032781;28;20247;-75
2023/01/19 01:41:29;;;;;;;2.58;1.63;;;4.90;99.90;;;;;;5042652;28;20208;-74
2023/01/19 01:44:00;;;;;;;2.00;1.80;;;4.90;99.90;;;;;;5025903;28;20556;-74
2023/01/19 01:46:31;;;;;;;1.63;1.52;;;4.80;99.90;;;;;;5023718;28;20226;-74
2023/01/19 01:49:04;;;;;;;1.73;1.45;;;4.90;99.90;;;;;;5027018;28;20185;-75
2023/01/19 01:51:39;;;;;;;2.05;1.58;;;4.90;99.90;;;;;;5024303;28;20204;-74
2023/01/19 01:54:14;;;;;;;2.20;2.00;;;4.90;99.90;;;;;;5032832;28;21513;-74
2023/01/19 01:56:44;;;;;;;1.90;1.30;;;4.90;99.90;;;;;;5035018;28;20805;-74
2023/01/19 01:59:24;;;;;;;2.28;1.67;;;4.80;99.90;;;;;;5026344;28;20185;-74
2023/01/19 02:05:02;;;;;;;1.70;1.60;;;4.80;99.90;;;;;;5000233;28;20202;-74
2023/01/19 02:13:22;;;;;;;2.67;1.50;;;4.80;99.90;;;;;;5004755;28;20231;-74
2023/01/19 02:15:52;;;;;;;2.10;1.83;;;4.80;99.90;;;;;;5005979;28;20635;-75
2023/01/19 02:18:24;;;;;;;2.65;1.90;;;4.80;99.90;;;;;;5026826;28;20248;-73
2023/01/19 02:20:59;;;;;;;3.28;1.92;;;4.80;99.90;;;;;;5027260;28;20254;-74
2023/01/19 02:23:41;;;;;;;2.17;1.98;;;4.80;99.90;;;;;;5028558;28;20664;-75
2023/01/19 02:26:11;;;;;;;1.55;1.40;;;4.80;99.90;;;;;;5024769;28;20290;-74
2023/01/19 02:28:43;;;;;;;1.70;1.60;;;4.80;99.90;;;;;;5028765;28;20224;-74
2023/01/19 02:31:13;;;;;;;2.45;1.60;;;4.80;99.90;;;;;;5043968;28;20279;-75
2023/01/19 02:33:42;;;;;;;2.00;1.80;;;4.80;99.90;;;;;;5052433;28;20241;-74
2023/01/19 02:36:13;;;;;;;1.75;1.30;;;4.80;99.90;;;;;;5017087;28;20216;-74
2023/01/19 02:38:46;;;;;;;2.20;2.00;;;4.80;99.90;;;;;;5025355;28;20695;-74
2023/01/19 02:41:20;;;;;;;2.42;2.20;;;4.80;99.90;;;;;;5046799;28;20206;-74
2023/01/19 02:43:49;;;;;;;2.50;1.80;;;4.80;99.90;;;;;;5018665;28;20252;-74
2023/01/19 02:46:17;;;;;;;2.55;2.10;;;4.80;99.90;;;;;;5042521;28;20223;-74
2023/01/19 02:48:49;;;;;;;1.40;1.30;;;4.80;99.90;;;;;;5028825;28;20240;-74
2023/01/19 02:51:21;;;;;;;2.05;1.85;;;4.80;99.90;;;;;;5028069;28;20291;-75
2023/01/19 02:54:11;;;;;;;3.40;2.17;;;4.80;99.90;;;;;;5026136;28;20760;-75
2023/01/19 02:56:55;;;;;;;2.20;1.90;;;4.80;99.90;;;;;;5027681;28;20227;-74
2023/01/19 02:59:36;;;;;;;5.05;2.85;;;4.80;99.90;;;;;;5029057;28;20211;-75
2023/01/19 03:02:19;;;;;;;3.25;1.80;;;4.80;99.90;;;;;;5014290;28;20220;-74
2023/01/19 03:04:59;;;;;;;1.88;1.67;;;4.80;99.90;;;;;;5030103;28;20525;-74
2023/01/19 03:07:43;;;;;;;2.95;1.98;;;4.80;99.90;;;;;;5030537;28;20639;-74
2023/01/19 03:10:22;;;;;;;3.15;1.70;;;4.80;99.90;;;;;;5035655;28;20200;-74
2023/01/19 03:12:57;;;;;;;1.73;1.50;;;4.80;99.90;;;;;;5029637;28;20224;-75
2023/01/19 03:15:31;;;;;;;2.50;1.90;;;4.80;99.90;;;;;;5029407;28;20196;-74
2023/01/19 03:18:01;;;;;;;2.38;1.58;;;4.80;99.90;;;;;;5047386;28;20597;-74
2023/01/19 03:20:30;;;;;;;2.10;1.75;;;4.80;99.90;;;;;;5029991;28;20613;-74
2023/01/19 03:23:01;;;;;;;2.30;2.10;;;4.80;99.90;;;;;;5029736;28;20665;-75
2023/01/19 03:25:36;;;;;;;2.70;2.15;;;4.80;99.90;;;;;;5029485;28;20375;-74
2023/01/19 03:28:05;;;;;;;2.22;1.33;;;4.80;99.90;;;;;;5030307;28;20710;-74
2023/01/19 03:30:37;;;;;;;2.45;1.83;;;4.80;99.90;;;;;;5028856;28;20219;-74
2023/01/19 03:33:09;;;;;;;2.30;1.60;;;4.80;99.90;;;;;;5039744;28;20254;-75
2023/01/19 03:35:43;;;;;;;2.25;1.80;;;4.80;99.90;;;;;;5029526;28;20197;-75
2023/01/19 03:38:16;;;;;;;1.70;1.40;;;4.80;99.90;;;;;;5034136;28;20223;-74
2023/01/19 03:40:47;;;;;;;1.70;1.50;;;4.80;99.90;;;;;;5045582;28;20200;-74
2023/01/19 03:43:17;;;;;;;4.05;1.80;;;4.80;99.90;;;;;;5030198;28;20251;-75
2023/01/19 03:45:45;;;;;;;1.98;1.60;;;4.80;99.90;;;;;;5027511;28;20195;-74
2023/01/19 03:48:14;;;;;;;2.90;2.45;;;4.80;99.90;;;;;;5036472;28;20282;-75
2023/01/19 03:50:43;;;;;;;2.67;1.60;;;4.80;99.90;;;;;;5029620;28;20287;-75
2023/01/19 03:53:13;;;;;;;2.63;1.48;;;4.80;99.90;;;;;;5029722;28;20608;-75
2023/01/19 03:55:44;;;;;;;2.20;1.60;;;4.80;99.90;;;;;;5026722;28;20235;-75
2023/01/19 03:58:14;;;;;;;2.00;1.30;;;4.80;99.90;;;;;;5029611;28;20695;-74
2023/01/19 04:00:43;;;;;;;2.53;1.58;;;4.80;99.90;;;;;;5027247;28;20232;-74
2023/01/19 04:03:14;;;;;;;2.22;1.63;;;4.80;99.90;;;;;;5027482;28;20308;-74
2023/01/19 04:05:43;;;;;;;1.75;1.63;;;4.70;99.90;;;;;;5045234;28;20605;-74
2023/01/19 04:08:12;;;;;;;1.73;1.40;;;4.70;99.90;;;;;;5027648;28;20654;-75
2023/01/19 04:10:40;;;;;;;2.22;1.65;;;4.70;99.90;;;;;;5039002;28;20752;-74
2023/01/19 04:13:09;;;;;;;1.52;1.42;;;4.80;99.90;;;;;;5026817;28;20220;-74
2023/01/19 04:15:39;;;;;;;2.63;1.40;;;4.70;99.90;;;;;;5025924;28;20193;-74
2023/01/19 04:18:08;;;;;;;2.80;2.30;;;4.70;99.90;;;;;;5036910;28;20271;-75
2023/01/19 04:20:37;;;;;;;2.45;2.17;;;4.70;99.90;;;;;;5026833;28;20208;-74
2023/01/19 04:23:05;;;;;;;2.65;1.30;;;4.70;99.90;;;;;;5027409;28;20262;-75
2023/01/19 04:25:34;;;;;;;3.83;2.03;;;4.70;99.90;;;;;;5024053;28;20275;-73
2023/01/19 04:28:05;;;;;;;2.78;1.50;;;4.80;99.90;;;;;;5026180;28;20218;-74
2023/01/19 04:30:33;;;;;;;2.47;2.20;;;4.70;99.90;;;;;;5027754;28;20291;-74
2023/01/19 04:33:03;;;;;;;3.33;2.20;;;4.70;99.90;;;;;;5017932;28;20644;-75
2023/01/19 04:35:33;;;;;;;2.88;1.80;;;4.70;99.90;;;;;;5026290;28;20204;-74
2023/01/19 04:38:03;;;;;;;2.28;1.75;;;4.70;99.90;;;;;;5051463;28;20216;-74
2023/01/19 04:40:32;;;;;;;3.22;2.15;;;4.70;99.90;;;;;;5026061;28;20291;-74
2023/01/19 04:43:00;;;;;;;2.42;1.50;;;4.70;99.90;;;;;;5025730;28;20316;-75
2023/01/19 04:45:29;;;;;;;1.95;1.50;;;4.70;99.90;;;;;;5044105;28;20204;-75
2023/01/19 04:47:57;;;;;;;2.25;1.80;;;4.70;99.90;;;;;;5024265;28;20216;-75
2023/01/19 04:50:27;;;;;;;2.00;1.48;;;4.70;99.90;;;;;;5027183;28;20189;-74
2023/01/19 04:52:56;;;;;;;2.35;1.42;;;4.70;99.90;;;;;;5025686;28;20212;-75
2023/01/19 04:55:25;;;;;;;2.42;1.73;;;4.70;99.90;;;;;;5022250;28;20221;-74
2023/01/19 04:57:53;;;;;;;3.00;1.45;;;4.70;99.90;;;;;;5024201;28;20236;-74
2023/01/19 05:00:23;;;;;;;1.70;1.60;;;4.70;99.90;;;;;;5025934;28;20208;-75
2023/01/19 05:02:51;;;;;;;2.15;1.92;;;4.70;99.90;;;;;;5041769;28;20239;-75
2023/01/19 05:05:19;;;;;;;1.75;1.60;;;4.70;99.90;;;;;;5043872;28;20199;-75
2023/01/19 05:07:49;;;;;;;2.25;1.65;;;4.70;99.90;;;;;;5031804;28;20229;-75
2023/01/19 05:10:18;;;;;;;1.80;1.60;;;4.70;99.90;;;;;;5039645;28;20712;-75
2023/01/19 05:12:46;;;;;;;1.95;1.58;;;4.70;99.90;;;;;;5026629;28;20255;-75
2023/01/19 05:15:14;;;;;;;1.60;1.50;;;4.70;99.90;;;;;;5026727;28;20358;-74
2023/01/19 05:17:43;;;;;;;3.05;1.90;;;4.70;99.90;;;;;;5040127;28;20633;-75
2023/01/19 05:20:12;;;;;;;2.90;2.00;;;4.70;99.90;;;;;;5044058;28;20729;-74
2023/01/19 05:22:48;;;;;;;2.22;1.80;;;4.70;99.90;;;;;;5025274;28;20228;-74
2023/01/19 05:25:18;;;;;;;1.88;1.65;;;4.70;99.90;;;;;;5028314;28;20554;-74
2023/01/19 05:27:47;;;;;;;2.20;2.00;;;4.70;99.90;;;;;;5025119;28;20228;-75
2023/01/19 05:30:15;;;;;;;2.35;1.52;;;4.70;99.90;;;;;;5026640;28;20579;-75
2023/01/19 05:32:44;;;;;;;2.20;2.00;;;4.70;99.90;;;;;;5024078;28;20661;-75
2023/01/19 05:35:15;;;;;;;2.25;1.60;;;4.70;99.90;;;;;;5042743;28;20207;-75
2023/01/19 05:37:49;;;;;;;4.72;1.75;;;4.70;99.90;;;;;;5037946;28;20224;-74
2023/01/19 05:40:19;;;;;;;2.30;1.63;;;4.70;99.90;;;;;;5026987;28;20189;-74
2023/01/19 05:42:48;;;;;;;2.13;1.70;;;4.70;99.90;;;;;;5034728;28;20721;-74
2023/01/19 05:45:16;;;;;;;2.03;1.52;;;4.70;99.90;;;;;;5045168;28;20192;-74
2023/01/19 05:47:44;;;;;;;2.45;2.25;;;4.70;99.90;;;;;;5036489;28;20228;-75
2023/01/19 05:50:13;;;;;;;1.70;1.60;;;4.80;99.90;;;;;;5038940;28;20253;-74
2023/01/19 05:52:41;;;;;;;2.80;1.90;;;4.70;99.90;;;;;;5043441;28;20238;-74
2023/01/19 05:55:10;;;;;;;2.50;2.17;;;4.70;99.90;;;;;;5029478;28;20714;-75
2023/01/19 05:57:39;;;;;;;3.25;2.35;;;4.70;99.90;;;;;;5025121;28;20225;-74
2023/01/19 06:00:09;;;;;;;2.13;1.58;;;4.70;99.90;;;;;;5029227;28;20223;-74
2023/01/19 06:02:37;;;;;;;2.40;2.03;;;4.70;99.90;;;;;;5043054;28;20251;-75
2023/01/19 06:05:06;;;;;;;2.65;2.08;;;4.70;99.90;;;;;;5046350;28;20720;-74
2023/01/19 06:07:34;;;;;;;2.50;2.05;;;4.70;99.90;;;;;;5029616;28;20250;-75
2023/01/19 06:10:03;;;;;;;2.38;1.85;;;4.70;99.90;;;;;;5027916;28;20192;-75
2023/01/19 06:12:32;;;;;;;1.60;1.50;;;4.70;99.90;;;;;;5026073;28;20307;-75
2023/01/19 06:15:02;;;;;;;2.53;1.80;;;4.70;99.90;;;;;;5052757;28;20201;-75
2023/01/19 06:17:32;;;;;;;2.80;1.90;;;4.70;99.90;;;;;;5038336;28;20618;-74
2023/01/19 06:20:01;;;;;;;3.60;1.67;;;4.70;99.90;;;;;;5039087;28;20200;-74
2023/01/19 06:22:30;;;;;;;2.80;2.20;;;4.70;99.90;;;;;;5029397;28;20654;-75
2023/01/19 06:24:58;;;;;;;1.63;1.50;;;4.70;99.90;;;;;;5026132;28;20808;-74
2023/01/19 06:27:26;;;;;;;1.85;1.70;;;4.70;99.90;;;;;;5027511;28;20277;-74
2023/01/19 06:29:55;;;;;;;2.30;1.95;;;4.70;99.90;;;;;;5028189;28;20292;-74
2023/01/19 06:32:24;;;;;;;2.08;1.45;;;4.70;99.90;;;;;;5027541;28;20216;-75
2023/01/19 06:34:53;;;;;;;2.60;2.28;;;4.70;99.90;;;;;;5028405;28;20201;-74
2023/01/19 06:37:21;;;;;;;2.42;1.88;;;4.70;99.90;;;;;;5028409;28;20266;-74
2023/01/19 06:39:50;;;;;;;2.97;2.33;;;4.70;99.90;;;;;;5027805;28;20255;-74
2023/01/19 06:42:18;;;;;;;2.17;1.98;;;4.70;99.90;;;;;;5026176;28;20236;-74
2023/01/19 06:44:47;;;;;;;3.70;3.10;;;4.70;99.90;;;;;;5038059;28;20290;-74
2023/01/19 06:47:16;;;;;;;2.20;1.65;;;4.70;99.90;;;;;;5029308;28;20211;-74
2023/01/19 06:49:45;;;;;;;2.28;1.70;;;4.70;99.90;;;;;;5045243;28;20561;-75
2023/01/19 06:52:15;;;;;;;2.92;1.90;;;4.70;99.90;;;;;;5027667;28;20227;-74
2023/01/19 06:54:43;;;;;;;2.75;2.20;;;4.70;99.90;;;;;;5056001;28;20634;-74
2023/01/19 06:57:13;;;;;;;2.63;1.70;;;4.70;99.90;;;;;;5054343;28;20216;-74
2023/01/19 06:59:42;;;;;;;2.08;1.77;;;4.70;99.90;;;;;;5047648;28;20219;-74
2023/01/19 07:02:11;;;;;;;3.38;1.45;;;4.70;99.90;;;;;;5039941;28;20220;-74
2023/01/19 07:04:57;;;;;;;3.40;2.50;;;4.70;99.90;;;;;;5028083;28;20781;-75
2023/01/19 07:07:26;;;;;;;2.65;1.98;;;4.70;99.90;;;;;;5027461;28;20217;-75
2023/01/19 07:09:54;;;;;;;2.53;1.77;;;4.70;99.90;;;;;;5028966;28;20224;-75
2023/01/19 07:12:23;;;;;;;2.38;2.13;;;4.70;99.90;;;;;;5027128;28;20216;-74
2023/01/19 07:14:51;;;;;;;2.53;1.50;;;4.70;99.90;;;;;;5027665;28;20323;-74
2023/01/19 07:17:20;;;;;;;3.95;1.90;;;4.70;99.90;;;;;;5027644;28;20193;-74
2023/01/19 07:19:48;;;;;;;2.05;1.80;;;4.70;99.90;;;;;;5025955;28;20197;-75
2023/01/19 07:22:18;;;;;;;3.53;1.88;;;4.70;99.90;;;;;;5027036;28;20580;-74
2023/01/19 07:24:46;;;;;;;2.17;1.58;;;4.70;99.90;;;;;;5024845;28;20288;-74
2023/01/19 07:27:15;;;;;;;4.30;2.97;;;4.70;99.90;;;;;;5028818;28;20196;-75
2023/01/19 07:29:44;;;;;;;3.22;2.28;;;4.70;99.90;;;;;;5026506;28;20223;-74
2023/01/19 07:32:13;;;;;;;2.88;1.88;;;4.70;99.90;;;;;;5056168;28;20270;-75
2023/01/19 07:34:42;;;;;;;2.38;2.17;;;4.70;99.90;;;;;;5027677;28;20682;-75
2023/01/19 07:37:10;;;;;;;2.67;1.90;;;4.70;99.90;;;;;;5032514;28;20284;-74
2023/01/19 07:39:40;;;;;;;2.25;1.80;;;4.70;99.90;;;;;;5029583;28;20181;-75
2023/01/19 07:42:08;;;;;;;3.25;2.03;;;4.60;99.90;;;;;;5024841;28;20270;-74
2023/01/19 07:44:37;;;;;;;2.70;1.80;;;4.70;99.90;;;;;;5026710;28;20193;-73
2023/01/19 07:47:06;;;;;;;2.45;1.80;;;4.70;99.90;;;;;;5049213;28;20298;-73
2023/01/19 07:49:35;;;;;;;2.00;1.80;;;4.60;99.90;;;;;;5025935;28;20228;-73
2023/01/19 07:52:03;;;;;;;5.18;3.08;;;4.60;99.90;;;;;;5040597;28;20098;-74
2023/01/19 07:54:32;;;;;;;9.52;5.07;;;4.60;99.90;;;;;;5034109;28;20200;-74
2023/01/19 07:57:02;;;;;;;7.78;4.90;;;4.60;99.90;;;;;;5025671;28;20283;-74
2023/01/19 07:59:31;;;;;;;8.95;5.30;;;4.60;99.90;;;;;;5025859;28;20196;-74
2023/01/19 08:01:59;;;;;;;7.00;5.18;;;4.60;99.90;;;;;;5005264;28;20311;-74
2023/01/19 08:04:28;;;;;;;8.45;5.90;;;4.50;99.90;;;;;;5056143;28;20296;-75
2023/01/19 08:06:57;;;;;;;7.88;5.28;;;4.50;99.90;;;;;;5027050;28;20199;-74
2023/01/19 08:09:25;;;;;;;7.18;5.65;;;4.50;99.90;;;;;;5042183;28;20518;-74
2023/01/19 08:11:53;;;;;;;7.63;5.05;;;4.50;99.90;;;;;;5044818;28;20213;-73
2023/01/19 08:14:23;;;;;;;5.75;5.10;;;4.50;99.90;;;;;;5049081;28;20197;-74
2023/01/19 08:16:51;;;;;;;6.10;5.00;;;4.50;99.90;;;;;;5044891;28;20211;-74
2023/01/19 08:19:20;;;;;;;6.10;4.55;;;4.50;99.90;;;;;;5066025;28;20184;-74
2023/01/19 08:21:48;;;;;;;6.25;4.97;;;4.50;99.90;;;;;;5038857;28;20270;-73
2023/01/19 08:24:20;;;;;;;6.10;4.22;;;4.50;99.90;;;;;;5038841;28;20279;-73
2023/01/19 08:26:49;;;;;;;5.60;5.05;;;4.50;99.90;;;;;;5045583;28;20709;-73
2023/01/19 08:29:18;;;;;;;6.75;4.63;;;4.50;99.90;;;;;;5037595;28;20258;-72
2023/01/19 08:31:47;;;;;;;7.05;5.07;;;4.50;99.90;;;;;;5040988;28;20235;-74
2023/01/19 08:34:16;;;;;;;5.80;4.88;;;4.50;99.90;;;;;;5038555;28;20228;-73
2023/01/19 08:36:48;;;;;;;5.13;3.95;;;4.50;99.90;;;;;;5027632;28;20238;-69
2023/01/19 08:39:17;;;;;;;9.43;5.45;;;4.50;99.90;;;;;;5020718;28;20201;-69
2023/01/19 08:41:45;;;;;;;7.65;4.10;;;4.50;99.90;;;;;;5035644;28;20607;-69
2023/01/19 08:44:14;;;;;;;5.88;4.10;;;4.50;99.90;;;;;;5023736;28;20746;-69
2023/01/19 08:46:43;;;;;;;5.32;4.22;;;4.50;99.90;;;;;;5025736;28;20621;-69
2023/01/19 08:49:13;;;;;;;7.57;4.70;;;4.50;99.90;;;;;;5025876;28;20221;-69
2023/01/19 08:51:41;;;;;;;6.88;4.10;;;4.50;99.90;;;;;;5041560;28;20199;-70
2023/01/19 08:54:09;;;;;;;4.40;4.00;;;4.50;99.90;;;;;;5028895;28;20207;-69
2023/01/19 08:56:37;;;;;;;7.70;4.68;;;4.50;99.90;;;;;;5035283;28;20196;-68
2023/01/19 08:59:06;;;;;;;4.28;3.55;;;4.50;99.90;;;;;;5035829;28;20594;-68
2023/01/19 09:01:38;;;;;;;8.82;4.85;;;4.60;99.90;;;;;;5037193;28;20299;-70
2023/01/19 09:04:07;;;;;;;5.75;4.22;;;4.50;99.90;;;;;;5042916;28;20240;-69
2023/01/19 09:06:36;;;;;;;6.57;4.45;;;4.60;99.90;;;;;;5054095;28;20188;-69
2023/01/19 09:09:05;;;;;;;6.50;3.80;;;4.60;99.90;;;;;;5028245;28;20188;-70
2023/01/19 09:11:33;;;;;;;6.18;3.72;;;4.60;99.90;;;;;;5043393;28;20234;-70
2023/01/19 09:14:03;;;;;;;8.80;4.53;;;4.60;99.90;;;;;;5043166;28;20216;-69
2023/01/19 09:16:31;;;;;;;4.78;3.30;;;4.60;99.90;;;;;;5037252;28;20204;-69
2023/01/19 09:19:02;;;;;;;4.47;3.45;;;4.60;99.90;;;;;;5033478;28;20639;-67
2023/01/19 09:21:31;;;;;;;5.72;3.70;;;4.60;99.90;;;;;;5065048;28;20569;-70
2023/01/19 09:24:00;;;;;;;6.47;4.13;;;4.60;99.90;;;;;;5034452;28;20548;-70
2023/01/19 09:26:28;;;;;;;4.32;3.70;;;4.60;99.90;;;;;;5032938;28;20194;-70
2023/01/19 09:29:01;;;;;;;8.68;4.90;;;4.60;99.90;;;;;;5029822;28;20497;-70
2023/01/19 09:31:29;;;;;;;4.47;3.90;;;4.60;99.90;;;;;;5050772;28;20224;-69
2023/01/19 09:33:58;;;;;;;4.97;3.60;;;4.60;99.90;;;;;;5031709;28;20215;-69
2023/01/19 09:36:26;;;;;;;9.52;3.95;;;4.60;99.90;;;;;;5061240;28;20230;-70
2023/01/19 09:38:54;;;;;;;7.72;4.60;;;4.60;99.90;;;;;;5056764;28;20750;-68
2023/01/19 09:41:25;;;;;;;4.22;3.83;;;4.60;99.90;;;;;;5057613;28;20663;-69
2023/01/19 09:43:58;;;;;;;3.83;3.40;;;4.60;99.90;;;;;;5042949;28;20220;-69
2023/01/19 09:46:33;;;;;;;5.22;4.40;;;4.50;99.90;;;;;;5063217;28;20193;-69
2023/01/19 09:49:05;;;;;;;4.43;3.35;;;4.60;99.90;;;;;;5040870;28;20195;-69
2023/01/19 09:51:36;;;;;;;4.47;3.72;;;4.60;99.90;;;;;;5038654;28;20266;-69
2023/01/19 09:54:12;;;;;;;6.80;3.97;;;4.60;99.90;;;;;;5048401;28;20245;-69
2023/01/19 09:56:43;;;;;;;4.68;3.75;;;4.60;99.90;;;;;;5034200;28;20239;-68
2023/01/19 09:59:21;;;;;;;5.20;3.90;;;4.60;99.90;;;;;;5032182;28;20253;-68
2023/01/19 10:02:25;;;;;;;4.95;3.30;;;4.60;99.90;;;;;;5047795;28;20567;-69
2023/01/19 10:05:00;;;;;;;4.63;3.65;;;4.60;99.90;;;;;;5049249;28;20203;-69
2023/01/19 10:07:51;;;;;;;4.28;3.58;;;4.60;99.90;;;;;;5065437;28;20254;-69
2023/01/19 10:10:22;;;;;;;4.00;3.60;;;4.60;99.90;;;;;;5036286;28;20295;-68
2023/01/19 10:13:10;;;;;;;5.00;3.17;;;4.60;99.90;;;;;;5035168;28;20212;-69
2023/01/19 10:15:46;;;;;;;6.13;2.92;;;4.60;99.90;;;;;;5046006;28;20193;-68
2023/01/19 10:18:19;;;;;;;5.78;4.07;;;4.60;99.90;;;;;;5043196;28;20219;-69
2023/01/19 10:20:50;;;;;;;5.85;3.45;;;4.60;99.90;;;;;;5041928;28;20249;-69
2023/01/19 10:23:32;;;;;;;5.53;3.88;;;4.60;99.90;;;;;;5067325;28;20224;-68
2023/01/19 10:26:04;;;;;;;4.95;3.40;;;4.60;99.90;;;;;;5041475;28;20896;-69
2023/01/19 10:28:36;;;;;;;6.90;4.30;;;4.60;99.90;;;;;;5067877;28;20721;-69
2023/01/19 10:31:06;;;;;;;5.57;3.88;;;4.60;99.90;;;;;;5054006;28;20752;-69
2023/01/19 10:33:35;;;;;;;6.70;3.58;;;4.60;99.90;;;;;;5044026;28;20359;-69
2023/01/19 10:36:16;;;;;;;9.93;4.93;;;4.60;99.90;;;;;;5027147;28;20200;-69
2023/01/19 10:38:45;;;;;;;10.57;6.30;;;4.60;99.90;;;;;;5041744;28;20220;-68
2023/01/19 10:41:21;;;;;;;9.50;5.32;;;4.60;99.90;;;;;;5028591;28;20189;-69
2023/01/19 10:43:59;;;;;;;6.43;5.10;;;4.60;99.90;;;;;;5032853;28;20236;-68
2023/01/19 10:46:37;;;;;;;10.75;5.38;;;4.60;99.90;;;;;;5039271;28;20323;-69
2023/01/19 10:49:06;;;;;;;7.30;4.78;;;4.60;99.90;;;;;;5029158;28;20192;-69
2023/01/19 10:51:46;;;;;;;6.85;4.57;;;4.60;99.90;;;;;;5029288;28;20214;-69
2023/01/19 10:54:15;;;;;;;10.00;6.05;;;4.60;99.90;;;;;;5036195;28;20205;-69
2023/01/19 10:56:50;;;;;;;7.63;4.68;;;4.60;99.90;;;;;;5059661;28;20335;-68
2023/01/19 10:59:35;;;;;;;7.90;5.88;;;4.60;99.90;;;;;;5060504;28;20202;-69
2023/01/19 11:02:16;;;;;;;6.68;4.15;;;4.60;99.90;;;;;;5026656;28;20192;-69
2023/01/19 11:04:45;;;;;;;6.90;4.60;;;4.60;99.90;;;;;;5049236;28;20297;-68
2023/01/19 11:07:20;;;;;;;7.30;4.45;;;4.60;99.90;;;;;;5047608;28;20227;-68
2023/01/19 11:09:50;;;;;;;9.02;4.70;;;4.60;99.90;;;;;;5032902;28;20814;-69
2023/01/19 11:12:20;;;;;;;7.13;4.40;;;4.60;99.90;;;;;;5033621;28;20219;-69
2023/01/19 11:14:52;;;;;;;6.53;4.85;;;4.60;99.90;;;;;;5032526;28;20189;-74
2023/01/19 11:17:24;;;;;;;6.63;4.50;;;4.60;99.90;;;;;;5035362;28;20201;-74
2023/01/19 11:19:58;;;;;;;8.32;3.95;;;4.60;99.90;;;;;;5060445;28;20580;-74
2023/01/19 11:22:31;;;;;;;6.43;4.43;;;4.60;99.90;;;;;;5028416;28;20231;-74
2023/01/19 11:25:02;;;;;;;6.50;4.20;;;4.60;99.90;;;;;;5044959;28;20193;-73
2023/01/19 11:27:34;;;;;;;7.93;4.60;;;4.60;99.90;;;;;;5027052;28;20200;-74
2023/01/19 11:30:09;;;;;;;9.25;5.40;;;4.60;99.90;;;;;;5057910;28;20197;-74
2023/01/19 11:32:37;;;;;;;6.00;4.05;;;4.60;99.90;;;;;;5039982;28;20213;-74
2023/01/19 11:35:32;;;;;;;5.85;4.70;;;4.60;99.90;;;;;;5027362;28;20197;-74
2023/01/19 11:38:18;;;;;;;7.43;5.00;;;4.60;99.90;;;;;;5048236;28;20638;-75
2023/01/19 11:40:53;;;;;;;13.45;5.47;;;4.60;99.90;;;;;;5052288;28;20607;-75
2023/01/19 11:43:22;;;;;;;5.63;4.13;;;4.60;99.90;;;;;;5055431;28;20705;-74
2023/01/19 11:45:52;;;;;;;6.15;4.03;;;4.60;99.90;;;;;;5042685;28;20278;-75
2023/01/19 11:48:29;;;;;;;5.85;4.78;;;4.60;99.90;;;;;;5052976;28;20212;-74
2023/01/19 11:51:00;;;;;;;5.47;4.65;;;4.70;99.90;;;;;;5026410;28;20215;-75
2023/01/19 11:53:32;;;;;;;6.55;3.45;;;4.60;99.90;;;;;;5041685;28;20230;-74
2023/01/19 11:56:03;;;;;;;3.70;3.17;;;4.60;99.90;;;;;;5033222;28;20197;-75
2023/01/19 11:58:36;;;;;;;7.72;4.63;;;4.60;99.90;;;;;;5060058;28;20221;-75
2023/01/19 12:01:14;;;;;;;7.00;4.05;;;4.60;99.90;;;;;;5053621;28;20201;-75
2023/01/19 12:03:46;;;;;;;8.35;4.13;;;4.60;99.90;;;;;;5042058;28;20216;-75
2023/01/19 12:06:18;;;;;;;5.93;4.25;;;4.60;99.90;;;;;;5021924;28;20195;-74
2023/01/19 12:08:52;;;;;;;4.05;3.38;;;4.60;99.90;;;;;;5044479;28;20224;-74
2023/01/19 12:11:26;;;;;;;6.20;4.22;;;4.60;99.90;;;;;;5026700;28;20208;-74
2023/01/19 12:13:54;;;;;;;4.97;3.40;;;4.60;99.90;;;;;;5016868;28;20229;-74
2023/01/19 12:16:28;;;;;;;4.93;3.38;;;4.70;99.90;;;;;;5039267;28;20678;-74
2023/01/19 12:19:00;;;;;;;6.82;4.68;;;4.70;99.90;;;;;;5039777;28;20220;-74
2023/01/19 12:21:29;;;;;;;9.40;4.13;;;4.60;99.90;;;;;;5025890;28;20188;-74
2023/01/19 12:24:08;;;;;;;6.70;4.68;;;4.60;99.90;;;;;;5040916;28;20252;-74
2023/01/19 12:26:38;;;;;;;5.57;4.20;;;4.60;99.90;;;;;;5026192;28;20200;-74
2023/01/19 12:29:11;;;;;;;6.47;3.47;;;4.60;99.90;;;;;;5045030;28;20254;-74
2023/01/19 12:31:41;;;;;;;6.75;3.95;;;4.60;99.90;;;;;;5023511;28;20308;-73
2023/01/19 12:34:30;;;;;;;7.38;3.92;;;4.60;99.90;;;;;;5027122;28;20219;-73
2023/01/19 12:37:03;;;;;;;7.15;3.45;;;4.70;99.90;;;;;;5027746;28;20200;-75
2023/01/19 12:39:34;;;;;;;4.80;3.65;;;4.60;99.90;;;;;;5022956;28;21581;-74
2023/01/19 12:42:11;;;;;;;5.18;3.95;;;4.60;99.90;;;;;;5026150;28;20222;-73
2023/01/19 12:44:40;;;;;;;5.50;4.65;;;4.60;99.90;;;;;;5009401;28;20576;-75
2023/01/19 12:47:23;;;;;;;5.53;3.60;;;4.60;99.90;;;;;;5024950;28;20663;-73
2023/01/19 12:49:55;;;;;;;5.25;3.80;;;4.60;99.90;;;;;;5026695;28;20204;-74
2023/01/19 12:52:34;;;;;;;4.47;3.30;;;4.60;99.90;;;;;;5025532;28;20220;-74
2023/01/19 12:55:19;;;;;;;6.60;3.80;;;4.60;99.90;;;;;;5027353;28;20595;-74
2023/01/19 12:57:56;;;;;;;7.68;3.92;;;4.60;99.90;;;;;;5025107;28;20256;-74
2023/01/19 13:00:31;;;;;;;5.13;3.40;;;4.70;99.90;;;;;;5052310;28;20604;-74
2023/01/19 13:03:02;;;;;;;5.45;3.50;;;4.60;99.90;;;;;;5035536;28;20220;-72
2023/01/19 13:05:58;;;;;;;5.20;3.70;;;4.60;99.90;;;;;;5025968;28;20730;-75
2023/01/19 13:08:30;;;;;;;3.70;2.78;;;4.60;99.90;;;;;;5048127;28;20587;-75
2023/01/19 13:11:19;;;;;;;4.45;2.88;;;4.60;99.90;;;;;;5050958;28;20290;-73
2023/01/19 13:14:26;;;;;;;4.88;3.05;;;4.60;99.90;;;;;;5039170;28;20231;-74
2023/01/19 13:17:04;;;;;;;3.30;2.85;;;4.60;99.90;;;;;;5042122;28;20632;-74
2023/01/19 13:19:49;;;;;;;4.30;3.72;;;4.60;99.90;;;;;;5026446;28;20197;-75
2023/01/19 13:22:57;;;;;;;4.93;3.92;;;4.60;99.90;;;;;;5025804;28;20228;-74
2023/01/19 13:25:30;;;;;;;4.18;2.90;;;4.60;99.90;;;;;;5026292;28;20197;-73
2023/01/19 13:27:59;;;;;;;4.55;3.60;;;4.60;99.90;;;;;;5026053;28;20231;-73
2023/01/19 13:30:28;;;;;;;5.70;3.10;;;4.60;99.90;;;;;;5025363;28;20224;-74
2023/01/19 13:33:04;;;;;;;4.38;3.50;;;4.60;99.90;;;;;;5017672;28;20710;-73